RKSIRJAA

Guest
Details From RKSI - Incheon Intl
To RJAA - NARITA INTL
Flight Number -
Tags decoded
Created
Modified
Stats Distance 11,214 nm / 20,768 km
Max Altitude 0 ft / 0 m
Waypoints 5
Social Downloads 0
Likes 0
Share VATSIM

Download

Looking for another format? Having issues loading an existing format? Contact us
Advertisement - Login to hide

Notes

Requested: RKSI EGOBA G597 LANAT Y51 SAMON Y517 LANAI Y301 SHELY Y30 MELON RJAA Unmatched points: EGOBA G597 Y517 LANAI Y301

Route

RKSI LANAT SAMON Y30 RJAA

ID Type Via Altitude Latitude Longitude Leg Dist Tot Dist Heading (true) Name
O RKSI APT - 0 ft / 0 m 37.46908˚ 126.45051˚ - 0 nm - Incheon Intl
LANAT FIX - 0 ft / 0 m 36.37324˚ 131.42831˚ 247 nm 247 nm 104° / 107° -
SAMON FIX - 0 ft / 0 m 36.24290˚ 134.50332˚ 149 nm 396 nm 92° / 94° -
Y30 APT - 0 ft / 0 m 45.53112˚ -84.55698˚ 5462 nm 5859 nm 26° / 149° Pbeaaye
O RJAA APT - 0 ft / 0 m 35.77655˚ 140.38277˚ 5353 nm 11213 nm 325° / 210° NARITA INTL

Altitude Profile

Advertisement - Login to hide

Weather


0- 5 10 15 20 25 30 35+ Temperature / ° C

Clouds and Precipitation
Forecast for 2017-12-14 18:00 UTC. Updated 19 minutes ago

Ground ~20,000 ft ~40,000 ft Winds

RKSI

Details ICAO RKSI (ICN)
Name Incheon Intl
Region South Korea
Timezone Unknown (UTC+0.0)
Stats Elevation 23 ft / 7 m (AMSL)
Location 37.469085° 126.450506°
Runways 2
Magnetic Variation 8.334° W

METAR

RKSI 141730Z 02005KT 7000 NSC M08/M13 Q1030 NOSIG

Decode

TAF

TAF RKSI 141100Z 1412/1518 02005KT 7000 SCT030 BKN180 TNM08/1420Z TX02/1503Z BECMG 1422/1423 08007KT BECMG 1506/1507 15010KT BECMG 1509/1510 21010KT 4200 BR FEW010 BKN030 OVC100 BECMG 1512/1513 33010KT 6000 -SN BECMG 1515/1516 NSW SCT030

Decode

Departure Runways

ID Width Length Bearing (true) Bearing (mag) Surface Threshold Offset Overrun Length
15L 197 ft / 60 m 12,312 ft / 3,753 m 144.77° 153.10° Asphalt 0 ft / 0 m 394 ft / 120 m
15R 197 ft / 60 m 12,312 ft / 3,753 m 144.77° 153.10° Asphalt 0 ft / 0 m 394 ft / 120 m
33L 197 ft / 60 m 12,312 ft / 3,753 m 324.79° 333.12° Asphalt 0 ft / 0 m 394 ft / 120 m
33R 197 ft / 60 m 12,312 ft / 3,753 m 324.79° 333.12° Asphalt 0 ft / 0 m 394 ft / 120 m

RJAA

Details ICAO RJAA (NRT)
Name NARITA INTL
Region Japan
Timezone Asia/Tokyo (UTC+9.0)
Stats Elevation 141 ft / 43 m (AMSL)
Location 35.776552° 140.382770°
Runways 2
Magnetic Variation 7.405° W

METAR

RJAA 141730Z VRB01KT CAVOK M01/M04 Q1024 NOSIG RMK A3025

Decode

TAF

TAF RJAA 141107Z 1412/1518 36005KT 9999 FEW030= TAF RJBB 141108Z 1412/1518 04010KT 9999 FEW020 SCT040 BECMG 1512/1515 17006KT

Decode

Destination Runways

ID Width Length Bearing (true) Bearing (mag) Surface Threshold Offset Overrun Length
16L 196 ft / 60 m 7,162 ft / 2,183 m 149.61° 157.02° Asphalt 190 ft / 58 m 0 ft / 0 m
16R 196 ft / 60 m 13,142 ft / 4,006 m 149.61° 157.02° Asphalt 0 ft / 0 m 410 ft / 125 m
34L 196 ft / 60 m 13,142 ft / 4,006 m 329.62° 337.03° Asphalt 0 ft / 0 m 415 ft / 126 m
34R 196 ft / 60 m 7,162 ft / 2,183 m 329.62° 337.03° Asphalt 190 ft / 58 m 0 ft / 0 m

Approach Navaids

Runway Type Ident Frequency Range Bearing (true) Bearing (mag) Slope Elevation
16L Localiser ITM 110.70 MHz 18 nm / 33 km 149.62° 157.02° - 141 ft / 43 m (AMSL)
16L Glidescope ITM 110.70 MHz 10 nm / 19 km 149.62° 157.02° 3.00° 141 ft / 43 m (AMSL)
16L DME ITM 110.70 MHz 18 nm / 33 km - - - 145 ft / 44 m (AMSL)
16R Localiser IKF 111.50 MHz 18 nm / 33 km 149.63° 157.03° - 141 ft / 43 m (AMSL)
16R Glidescope IKF 111.50 MHz 10 nm / 19 km 149.62° 157.02° 3.00° 141 ft / 43 m (AMSL)
16R DME IKF 111.50 MHz 18 nm / 33 km - - - 145 ft / 44 m (AMSL)
34L Localiser IYQ 111.90 MHz 18 nm / 33 km 329.61° 337.01° - 141 ft / 43 m (AMSL)
34L Glidescope IYQ 111.90 MHz 10 nm / 19 km 329.62° 337.02° 3.00° 141 ft / 43 m (AMSL)
34L DME IYQ 111.90 MHz 18 nm / 33 km - - - 153 ft / 47 m (AMSL)
34R Localiser ITJ 110.90 MHz 18 nm / 33 km 329.62° 337.02° - 141 ft / 43 m (AMSL)
34R Glidescope ITJ 110.90 MHz 10 nm / 19 km 329.62° 337.02° 3.00° 141 ft / 43 m (AMSL)
34R DME ITJ 110.90 MHz 18 nm / 33 km - - - 148 ft / 45 m (AMSL)

Popular Alternatives